Time;durP1;ratioP1;P1;durP2;ratioP2;P2;SDS_P1;SDS_P2;PMS_P1;PMS_P2;Temp;Humidity;BMP_temperature;BMP_pressure;BME280_temperature;BME280_humidity;BME280_pressure;Samples;Min_cycle;Max_cycle;Signal;HPM_P1;HPM_P2
2023/05/22 00:00:06;;;;;;;8.02;4.63;;;;;;;10.77;100.00;98699.50;5138072;28;20116;-56
2023/05/22 00:02:32;;;;;;;5.85;3.67;;;;;;;10.68;100.00;98710.00;5138308;28;20051;-50
2023/05/22 00:04:59;;;;;;;7.40;4.30;;;;;;;10.64;100.00;98709.97;5138035;27;20098;-50
2023/05/22 00:07:26;;;;;;;9.20;4.00;;;;;;;10.62;100.00;98719.72;5138208;28;20080;-50
2023/05/22 00:09:52;;;;;;;5.25;4.07;;;;;;;10.50;100.00;98724.31;5138162;28;20056;-51
2023/05/22 00:12:18;;;;;;;5.40;4.50;;;;;;;10.35;100.00;98720.59;5138062;28;20043;-57
2023/05/22 00:14:44;;;;;;;6.90;3.90;;;;;;;10.36;100.00;98735.91;5137935;27;20309;-52
2023/05/22 00:17:13;;;;;;;9.80;4.15;;;;;;;10.43;100.00;98737.94;5137719;28;20416;-50
2023/05/22 00:19:40;;;;;;;7.43;4.20;;;;;;;10.46;100.00;98750.06;5137897;28;20112;-51
2023/05/22 00:22:06;;;;;;;7.32;3.50;;;;;;;10.47;100.00;98733.28;5137711;28;20057;-52
2023/05/22 00:24:32;;;;;;;5.75;4.22;;;;;;;10.48;100.00;98736.78;5137651;28;20055;-51
2023/05/22 00:26:57;;;;;;;6.15;4.03;;;;;;;10.43;100.00;98737.94;5137671;28;20085;-54
2023/05/22 00:29:23;;;;;;;10.68;4.03;;;;;;;10.41;100.00;98742.19;5137637;28;20444;-56
2023/05/22 00:31:49;;;;;;;5.90;3.45;;;;;;;10.38;100.00;98742.94;5137892;27;20086;-58
2023/05/22 00:34:15;;;;;;;7.03;3.60;;;;;;;10.38;100.00;98745.69;5137767;28;20077;-60
2023/05/22 00:36:42;;;;;;;5.78;3.83;;;;;;;10.29;100.00;98754.97;5137724;27;20078;-58
2023/05/22 00:39:08;;;;;;;6.47;4.43;;;;;;;10.36;100.00;98752.34;5137611;28;20069;-61
2023/05/22 00:41:34;;;;;;;5.85;4.25;;;;;;;10.36;100.00;98760.56;5137651;28;20100;-58
2023/05/22 00:44:01;;;;;;;8.52;4.40;;;;;;;10.31;100.00;98768.31;5137324;28;20115;-55
2023/05/22 00:46:27;;;;;;;8.88;4.00;;;;;;;10.29;100.00;98776.88;5137441;28;20153;-55
2023/05/22 00:48:53;;;;;;;4.95;4.00;;;;;;;10.25;100.00;98795.19;5137403;28;20043;-51
2023/05/22 00:51:21;;;;;;;8.73;4.25;;;;;;;10.28;100.00;98793.72;5137476;28;20300;-58
2023/05/22 00:53:48;;;;;;;6.00;4.05;;;;;;;10.26;100.00;98794.09;5137315;28;20095;-59
2023/05/22 00:56:15;;;;;;;6.28;3.95;;;;;;;10.25;100.00;98811.63;5137237;28;20487;-56
2023/05/22 00:58:42;;;;;;;5.32;3.78;;;;;;;10.26;100.00;98816.00;5137462;28;20107;-57
2023/05/22 01:01:10;;;;;;;8.15;3.95;;;;;;;10.28;100.00;98824.63;5137214;28;20134;-55
2023/05/22 01:03:41;;;;;;;6.88;4.00;;;;;;;10.31;100.00;98832.13;5137134;27;20417;-59
2023/05/22 01:06:07;;;;;;;5.55;3.88;;;;;;;10.38;100.00;98831.41;5137101;27;20055;-55
2023/05/22 01:08:33;;;;;;;4.70;3.80;;;;;;;10.40;100.00;98828.31;5137577;27;20138;-60
2023/05/22 01:11:04;;;;;;;7.55;4.00;;;;;;;10.45;100.00;98819.75;5140943;28;20051;-59
2023/05/22 01:13:39;;;;;;;6.30;4.35;;;;;;;10.53;100.00;98814.00;5140735;28;20055;-59
2023/05/22 01:16:10;;;;;;;5.68;4.28;;;;;;;10.44;100.00;98805.28;5140766;28;20051;-51
2023/05/22 01:18:42;;;;;;;7.18;4.18;;;;;;;10.51;100.00;98791.66;5140695;28;20066;-50
2023/05/22 01:21:14;;;;;;;7.13;4.05;;;;;;;10.61;100.00;98768.28;5140927;28;20138;-59
2023/05/22 01:24:27;;;;;;;11.70;4.35;;;;;;;10.69;100.00;98750.72;5140720;28;20145;-59
2023/05/22 01:27:14;;;;;;;9.07;4.20;;;;;;;10.70;100.00;98752.31;5140711;28;20057;-60
2023/05/22 01:29:47;;;;;;;7.68;4.22;;;;;;;10.68;100.00;98749.16;5140566;28;20062;-59
2023/05/22 01:32:19;;;;;;;6.20;4.60;;;;;;;10.79;100.00;98760.22;5140547;28;20046;-52
2023/05/22 01:34:50;;;;;;;7.88;4.35;;;;;;;10.80;100.00;98754.38;5140726;28;20531;-60
2023/05/22 01:37:18;;;;;;;7.45;4.15;;;;;;;10.83;100.00;98758.34;5140334;27;20093;-59
2023/05/22 01:39:46;;;;;;;7.90;4.68;;;;;;;10.88;100.00;98765.41;5140583;28;20133;-51
2023/05/22 01:42:12;;;;;;;7.25;4.13;;;;;;;10.91;100.00;98746.25;5140462;28;20137;-60
2023/05/22 01:44:40;;;;;;;6.38;4.65;;;;;;;11.02;100.00;98740.88;5140244;28;20075;-60
2023/05/22 01:47:07;;;;;;;6.65;4.35;;;;;;;11.01;100.00;98718.13;5140347;28;20046;-60
2023/05/22 01:49:34;;;;;;;7.85;4.43;;;;;;;10.97;100.00;98708.31;5140314;27;20413;-52
2023/05/22 01:52:08;;;;;;;5.97;4.43;;;;;;;10.97;100.00;98713.81;5140236;28;20111;-54
2023/05/22 01:54:37;;;;;;;;;;;;;;;11.06;100.00;98725.22;5140606;28;20051;-56
2023/05/22 01:57:12;;;;;;;13.10;4.80;;;;;;;10.88;100.00;98743.47;5140080;28;20026;-51
2023/05/22 01:59:44;;;;;;;5.80;4.20;;;;;;;10.97;100.00;98746.72;5140039;28;20435;-51
2023/05/22 02:02:12;;;;;;;8.63;3.88;;;;;;;11.06;100.00;98730.72;5140196;28;20425;-55
2023/05/22 02:04:44;;;;;;;6.20;4.53;;;;;;;11.13;100.00;98727.25;5140091;28;20336;-60
2023/05/22 02:07:13;;;;;;;7.50;4.13;;;;;;;11.10;100.00;98725.28;5140029;27;20324;-59
2023/05/22 02:09:40;;;;;;;13.23;4.97;;;;;;;11.04;100.00;98733.84;5139972;28;20133;-52
2023/05/22 02:12:07;;;;;;;7.10;4.25;;;;;;;11.07;100.00;98718.59;5139911;28;20106;-59
2023/05/22 02:14:34;;;;;;;7.10;4.45;;;;;;;11.18;100.00;98718.69;5140031;28;20199;-53
2023/05/22 02:17:00;;;;;;;6.70;4.38;;;;;;;11.29;100.00;98703.06;5139808;28;20374;-59
2023/05/22 02:19:26;;;;;;;11.70;4.57;;;;;;;11.30;100.00;98693.69;5139393;27;20055;-59
2023/05/22 02:21:53;;;;;;;6.10;4.30;;;;;;;11.27;100.00;98691.72;5139942;28;20055;-55
2023/05/22 02:24:20;;;;;;;7.10;4.22;;;;;;;11.21;100.00;98694.00;5139882;27;20055;-55
2023/05/22 02:26:46;;;;;;;7.45;4.50;;;;;;;11.33;100.00;98714.88;5139589;28;20413;-50
2023/05/22 02:29:12;;;;;;;5.07;4.43;;;;;;;11.28;100.00;98723.47;5139759;27;20057;-54
2023/05/22 02:31:38;;;;;;;7.65;5.15;;;;;;;11.44;100.00;98714.97;5139697;28;20124;-53
2023/05/22 02:34:06;;;;;;;5.57;4.57;;;;;;;11.53;100.00;98707.19;5139687;28;20055;-51
2023/05/22 02:36:31;;;;;;;5.72;4.28;;;;;;;11.67;100.00;98685.31;5139484;27;20043;-53
2023/05/22 02:38:58;;;;;;;7.25;4.07;;;;;;;11.49;100.00;98674.19;5139600;28;20446;-55
2023/05/22 02:41:24;;;;;;;6.03;4.25;;;;;;;11.68;100.00;98686.88;5139442;28;20185;-56
2023/05/22 02:43:50;;;;;;;7.78;4.30;;;;;;;11.90;100.00;98673.28;5139365;28;20088;-59
2023/05/22 02:46:16;;;;;;;8.30;4.50;;;;;;;11.88;100.00;98656.41;5139322;28;20359;-55
2023/05/22 02:48:44;;;;;;;5.82;4.47;;;;;;;11.95;100.00;98646.22;5139306;28;20426;-53
2023/05/22 02:51:10;;;;;;;7.20;3.92;;;;;;;11.90;100.00;98643.06;5139488;28;20071;-52
2023/05/22 02:53:38;;;;;;;10.55;4.00;;;;;;;11.73;100.00;98650.81;5139397;28;20302;-50
2023/05/22 02:56:06;;;;;;;11.20;4.22;;;;;;;11.80;100.00;98663.00;5139389;28;20051;-55
2023/05/22 02:58:32;;;;;;;6.38;4.13;;;;;;;11.87;100.00;98663.84;5139249;28;20142;-54
2023/05/22 03:00:58;;;;;;;9.10;4.47;;;;;;;11.98;100.00;98652.91;5139248;28;20085;-58
2023/05/22 03:03:24;;;;;;;6.25;4.25;;;;;;;11.93;100.00;98653.28;5139122;28;20134;-61
2023/05/22 03:05:52;;;;;;;6.78;4.43;;;;;;;12.64;100.00;98644.44;5139035;27;20051;-52
2023/05/22 03:08:18;;;;;;;5.47;4.00;;;;;;;12.70;100.00;98627.16;5138974;28;20417;-58
2023/05/22 03:10:45;;;;;;;10.00;4.00;;;;;;;12.50;100.00;98627.94;5138981;28;20054;-61
2023/05/22 03:13:11;;;;;;;4.68;3.85;;;;;;;12.91;100.00;98625.59;5138928;28;20047;-60
2023/05/22 03:15:37;;;;;;;7.72;4.18;;;;;;;12.97;100.00;98624.03;5138755;28;20083;-57
2023/05/22 03:18:03;;;;;;;6.47;4.22;;;;;;;13.03;100.00;98618.88;5138756;28;20047;-59
2023/05/22 03:20:30;;;;;;;5.63;3.88;;;;;;;13.00;100.00;98628.75;5138978;28;20051;-60
2023/05/22 03:22:56;;;;;;;6.13;4.28;;;;;;;12.94;100.00;98622.84;5138889;28;20047;-60
2023/05/22 03:25:22;;;;;;;6.13;4.25;;;;;;;12.89;100.00;98625.19;5138915;28;20061;-56
2023/05/22 03:27:47;;;;;;;11.18;4.32;;;;;;;12.85;100.00;98618.91;5138647;27;20062;-54
2023/05/22 03:30:15;;;;;;;8.90;5.30;;;;;;;13.00;100.00;98627.97;5138614;28;20047;-54
2023/05/22 03:32:41;;;;;;;5.63;3.80;;;;;;;12.89;100.00;98625.97;5137833;27;20142;-60
2023/05/22 03:35:07;;;;;;;6.15;4.25;;;;;;;13.04;100.00;98624.00;5138510;28;20055;-58
2023/05/22 03:37:33;;;;;;;5.53;4.32;;;;;;;13.13;100.00;98621.66;5138464;28;20047;-54
2023/05/22 03:39:59;;;;;;;6.75;4.10;;;;;;;13.03;100.00;98625.19;5138494;28;20059;-56
2023/05/22 03:42:25;;;;;;;5.95;4.15;;;;;;;13.22;100.00;98623.97;5138482;28;20439;-58
2023/05/22 03:44:51;;;;;;;7.80;4.57;;;;;;;13.32;100.00;98620.44;5138283;28;20490;-60
2023/05/22 03:47:18;;;;;;;5.47;3.85;;;;;;;13.40;100.00;98621.25;5138340;28;20055;-61
2023/05/22 03:49:44;;;;;;;5.90;4.07;;;;;;;13.49;100.00;98623.56;5138543;28;20137;-60
2023/05/22 03:52:10;;;;;;;4.72;3.90;;;;;;;14.41;100.00;98625.13;5138466;28;20329;-59
2023/05/22 03:54:36;;;;;;;5.70;4.18;;;;;;;15.58;100.00;98661.25;5138307;28;20047;-56
2023/05/22 03:57:02;;;;;;;7.70;3.88;;;;;;;16.57;100.00;98809.91;5138334;28;20054;-52
2023/05/22 03:59:27;;;;;;;12.23;4.35;;;;;;;17.10;100.00;98941.41;5138250;27;20055;-56
2023/05/22 04:01:56;;;;;;;6.38;3.83;;;;;;;17.88;100.00;99025.53;5138042;28;20054;-58
2023/05/22 04:04:25;;;;;;;7.40;3.63;;;;;;;18.41;100.00;99090.56;5138248;28;20389;-57
2023/05/22 04:06:51;;;;;;;9.80;5.05;;;;;;;19.24;100.00;99129.69;5138046;27;20047;-58
2023/05/22 04:09:18;;;;;;;6.45;3.33;;;;;;;19.13;100.00;99170.78;5138031;28;20066;-52
2023/05/22 04:11:45;;;;;;;4.78;3.63;;;;;;;18.71;100.00;99163.88;5137979;28;20051;-60
2023/05/22 04:14:11;;;;;;;11.25;3.70;;;;;;;19.57;100.00;99190.28;5137893;28;20416;-59
2023/05/22 04:16:37;;;;;;;6.07;3.90;;;;;;;19.33;100.00;99253.44;5137826;28;20138;-57
2023/05/22 04:19:03;;;;;;;11.27;3.10;;;;;;;18.58;100.00;99247.75;5137983;28;20051;-53
2023/05/22 04:21:32;;;;;;;4.20;3.08;;;;;;;19.27;100.00;99247.56;5137909;28;20138;-56
2023/05/22 04:23:58;;;;;;;5.55;3.20;;;;;;;20.11;100.00;99279.88;5137613;28;20051;-60
2023/05/22 04:26:24;;;;;;;7.13;3.10;;;;;;;20.63;100.00;99301.56;5137916;28;20388;-54
2023/05/22 04:28:50;;;;;;;7.55;4.28;;;;;;;21.14;94.00;99313.19;5137659;28;20137;-54
2023/05/22 04:31:16;;;;;;;8.75;4.50;;;;;;;21.08;93.16;99316.91;5137739;28;20062;-56
2023/05/22 04:33:43;;;;;;;9.70;3.40;;;;;;;20.42;95.98;99305.53;5137567;28;20069;-58
2023/05/22 04:36:09;;;;;;;9.27;3.40;;;;;;;20.38;96.01;99306.81;5137606;27;20082;-60
2023/05/22 04:38:36;;;;;;;4.97;3.20;;;;;;;20.29;95.55;99303.81;5137575;28;20053;-61
2023/05/22 04:41:02;;;;;;;5.90;3.08;;;;;;;19.72;100.00;99286.16;5137394;28;20464;-57
2023/05/22 04:43:28;;;;;;;5.82;3.38;;;;;;;19.00;100.00;99237.25;5137220;27;20139;-54
2023/05/22 04:45:55;;;;;;;7.53;3.22;;;;;;;18.77;100.00;99221.34;5137489;28;20047;-54
2023/05/22 04:48:21;;;;;;;4.43;3.22;;;;;;;18.50;100.00;99218.50;5137598;28;20340;-57
2023/05/22 04:50:47;;;;;;;4.22;3.40;;;;;;;18.29;100.00;99214.03;5137446;28;20051;-51
2023/05/22 04:53:13;;;;;;;4.18;3.17;;;;;;;18.00;100.00;99213.59;5137246;28;20134;-57
2023/05/22 04:55:40;;;;;;;4.85;3.35;;;;;;;17.80;100.00;99193.22;5137222;28;20058;-52
2023/05/22 04:58:06;;;;;;;8.02;3.47;;;;;;;17.97;100.00;99128.41;5137234;28;20134;-50
2023/05/22 05:00:32;;;;;;;6.50;3.40;;;;;;;17.74;100.00;99061.75;5137188;28;20112;-58
2023/05/22 05:02:59;;;;;;;8.73;3.10;;;;;;;17.67;100.00;99064.59;5137111;28;20112;-58
2023/05/22 05:05:25;;;;;;;11.77;3.80;;;;;;;17.70;100.00;99063.78;5136840;27;20446;-51
2023/05/22 05:07:52;;;;;;;4.35;3.28;;;;;;;17.52;100.00;99063.97;5136927;27;20097;-54
2023/05/22 05:10:18;;;;;;;8.23;4.43;;;;;;;17.60;100.00;99055.16;5136941;28;20051;-52
2023/05/22 05:12:44;;;;;;;11.00;3.30;;;;;;;17.54;100.00;99022.78;5136927;28;20141;-60
2023/05/22 05:15:10;;;;;;;6.50;3.60;;;;;;;17.47;100.00;98987.63;5137027;28;20145;-57
2023/05/22 05:17:36;;;;;;;9.05;3.28;;;;;;;17.32;100.00;98964.84;5137661;28;20112;-61
2023/05/22 05:20:05;;;;;;;5.72;3.42;;;;;;;17.36;100.00;99006.34;5137276;28;20051;-60
2023/05/22 05:22:31;;;;;;;10.73;4.70;;;;;;;17.38;100.00;98990.91;5136946;28;20340;-62
2023/05/22 05:24:57;;;;;;;6.15;3.53;;;;;;;17.32;100.00;98964.84;5136877;28;20047;-57
2023/05/22 05:27:23;;;;;;;6.32;3.75;;;;;;;17.44;100.00;98957.97;5136730;28;20521;-54
2023/05/22 05:29:49;;;;;;;8.15;4.90;;;;;;;17.43;100.00;98961.97;5136801;27;20051;-53
2023/05/22 05:32:15;;;;;;;7.85;3.47;;;;;;;17.47;100.00;98964.69;5136776;28;20059;-55
2023/05/22 05:34:41;;;;;;;9.52;3.80;;;;;;;17.56;100.00;98956.63;5136520;28;20059;-54
2023/05/22 05:37:08;;;;;;;9.65;3.90;;;;;;;17.72;100.00;98992.06;5136473;27;20075;-55
2023/05/22 05:39:34;;;;;;;9.52;3.88;;;;;;;17.91;100.00;98990.63;5136296;28;20058;-58
2023/05/22 05:42:00;;;;;;;12.85;5.32;;;;;;;18.24;100.00;98998.03;5136228;28;20420;-62
2023/05/22 05:44:26;;;;;;;11.18;3.95;;;;;;;18.42;100.00;99035.81;5136305;28;20145;-61
2023/05/22 05:46:53;;;;;;;10.90;4.82;;;;;;;18.56;100.00;99074.47;5136678;28;20111;-61
2023/05/22 05:49:19;;;;;;;8.90;4.45;;;;;;;18.77;100.00;99098.34;5136330;28;20078;-59
2023/05/22 05:51:45;;;;;;;14.38;4.38;;;;;;;19.92;100.00;99170.13;5136592;27;20061;-54
2023/05/22 05:54:11;;;;;;;7.00;3.97;;;;;;;21.50;100.00;99244.66;5136527;27;20051;-51
2023/05/22 05:56:37;;;;;;;7.47;4.75;;;;;;;22.42;98.76;99293.66;5139693;28;20055;-54
2023/05/22 05:59:03;;;;;;;8.55;4.50;;;;;;;22.00;95.12;99307.56;5139890;28;20062;-56
2023/05/22 06:01:31;;;;;;;9.82;5.93;;;;;;;22.19;98.17;99308.66;5139800;28;20153;-60
2023/05/22 06:04:01;;;;;;;10.35;4.53;;;;;;;22.91;92.65;99316.56;5139568;28;20043;-59
2023/05/22 06:06:28;;;;;;;13.27;5.40;;;;;;;23.71;81.89;99332.50;5139714;27;20070;-61
2023/05/22 06:08:54;;;;;;;8.55;5.03;;;;;;;24.34;80.81;99330.75;5139539;27;20140;-56
2023/05/22 06:11:21;;;;;;;9.30;3.90;;;;;;;24.64;78.12;99346.91;5139529;28;20059;-55
2023/05/22 06:13:47;;;;;;;10.20;5.10;;;;;;;25.56;75.89;99338.19;5139674;28;20081;-56
2023/05/22 06:16:13;;;;;;;16.83;6.70;;;;;;;25.63;73.71;99346.31;5139502;28;20091;-62
2023/05/22 06:18:39;;;;;;;12.60;5.50;;;;;;;25.33;72.62;99351.53;5139665;27;20113;-56
2023/05/22 06:21:06;;;;;;;56.35;8.52;;;;;;;25.19;77.37;99352.09;5139527;28;20055;-51
2023/05/22 06:23:32;;;;;;;14.93;5.80;;;;;;;25.25;74.89;99344.63;5139451;28;20043;-53
2023/05/22 06:25:58;;;;;;;41.80;8.60;;;;;;;25.17;75.92;99348.94;5139170;28;20058;-55
2023/05/22 06:28:24;;;;;;;12.90;4.93;;;;;;;25.05;75.17;99347.75;5139409;28;20138;-58
2023/05/22 06:30:49;;;;;;;11.63;5.15;;;;;;;25.29;74.35;99341.66;5139233;28;20058;-62
2023/05/22 06:33:16;;;;;;;15.77;5.07;;;;;;;25.97;71.98;99336.91;5139217;27;20108;-62
2023/05/22 06:35:42;;;;;;;12.45;4.93;;;;;;;26.61;68.20;99341.78;5139010;27;20051;-55
2023/05/22 06:38:08;;;;;;;9.45;4.40;;;;;;;27.37;65.58;99342.69;5139308;28;20142;-56
2023/05/22 06:40:34;;;;;;;9.90;5.60;;;;;;;26.56;66.10;99342.41;5139074;28;20501;-54
2023/05/22 06:43:00;;;;;;;16.20;4.80;;;;;;;26.41;69.18;99331.00;5139265;28;20091;-54
2023/05/22 06:45:26;;;;;;;7.40;4.10;;;;;;;26.32;68.33;99336.59;5139015;28;20111;-55
2023/05/22 06:47:52;;;;;;;10.25;4.28;;;;;;;26.33;67.61;99337.41;5139013;28;20047;-54
2023/05/22 06:50:19;;;;;;;12.65;3.80;;;;;;;26.14;67.98;99333.81;5138748;27;20047;-59
2023/05/22 06:52:44;;;;;;;7.53;3.60;;;;;;;26.06;67.08;99327.72;5139103;28;20059;-60
2023/05/22 06:55:11;;;;;;;6.47;3.60;;;;;;;26.33;65.56;99332.56;5139167;28;20085;-57
2023/05/22 06:57:37;;;;;;;7.35;3.70;;;;;;;26.99;66.65;99323.56;5139007;28;20051;-61
2023/05/22 07:00:06;;;;;;;7.35;3.40;;;;;;;27.03;64.39;99329.06;5139403;28;20332;-60
2023/05/22 07:02:32;;;;;;;9.35;3.63;;;;;;;27.82;62.04;99338.09;5138847;28;20184;-62
2023/05/22 07:04:58;;;;;;;19.83;4.13;;;;;;;27.71;59.73;99337.06;5138557;27;20409;-56
2023/05/22 07:07:24;;;;;;;7.07;4.50;;;;;;;28.22;58.76;99336.09;5137418;27;20326;-57
2023/05/22 07:09:50;;;;;;;4.80;3.38;;;;;;;28.92;56.01;99336.41;5138555;28;20158;-62
2023/05/22 07:12:17;;;;;;;6.03;2.78;;;;;;;28.24;57.56;99333.59;5139045;28;20070;-62
2023/05/22 07:14:43;;;;;;;11.80;3.33;;;;;;;27.52;58.83;99331.50;5138985;28;20134;-59
2023/05/22 07:17:09;;;;;;;5.57;2.58;;;;;;;26.83;59.52;99329.56;5138769;28;20046;-55
2023/05/22 07:19:35;;;;;;;5.57;2.97;;;;;;;25.73;62.27;99327.47;5138477;28;20142;-53
2023/05/22 07:22:01;;;;;;;5.10;3.00;;;;;;;25.02;65.93;99315.03;5138411;28;20401;-54
2023/05/22 07:24:27;;;;;;;4.03;2.97;;;;;;;24.42;70.57;99312.47;5138264;28;20106;-60
2023/05/22 07:26:52;;;;;;;7.60;3.50;;;;;;;24.05;70.16;99303.75;5138525;27;20051;-61
2023/05/22 07:29:19;;;;;;;6.88;3.05;;;;;;;23.69;72.37;99307.78;5138228;28;20054;-61
2023/05/22 07:31:45;;;;;;;5.03;3.13;;;;;;;23.49;73.78;99296.81;5138330;28;20146;-64
2023/05/22 07:34:11;;;;;;;6.03;2.83;;;;;;;23.13;75.70;99297.16;5138307;28;20055;-61
2023/05/22 07:36:37;;;;;;;5.10;2.40;;;;;;;22.89;77.81;99298.66;5138025;27;20062;-60
2023/05/22 07:39:04;;;;;;;5.18;2.65;;;;;;;22.53;79.26;99296.94;5137782;28;20047;-53
2023/05/22 07:41:30;;;;;;;12.77;3.65;;;;;;;22.47;83.22;99288.31;5137717;28;20431;-55
2023/05/22 07:43:56;;;;;;;8.13;2.65;;;;;;;22.24;84.68;99285.78;5137793;28;20055;-59
2023/05/22 07:46:22;;;;;;;7.07;2.70;;;;;;;22.11;85.34;99288.50;5137913;28;20051;-58
2023/05/22 07:48:48;;;;;;;10.10;5.13;;;;;;;21.85;94.53;99265.25;5137860;28;20051;-59
2023/05/22 07:51:14;;;;;;;4.93;2.47;;;;;;;21.72;91.54;99265.19;5137451;28;20051;-62
2023/05/22 07:53:40;;;;;;;4.18;3.20;;;;;;;21.47;92.30;99271.41;5138174;28;20075;-56
2023/05/22 07:56:06;;;;;;;5.68;2.95;;;;;;;21.50;94.18;99264.97;5137872;28;20070;-52
2023/05/22 07:58:33;;;;;;;3.05;2.15;;;;;;;21.34;95.69;99262.16;5137790;28;20515;-58
2023/05/22 08:01:00;;;;;;;3.63;1.98;;;;;;;21.35;92.99;99275.69;5137770;28;20340;-59
2023/05/22 08:03:27;;;;;;;4.15;2.40;;;;;;;21.11;92.42;99271.47;5137661;28;20225;-56
2023/05/22 08:05:53;;;;;;;7.75;3.20;;;;;;;21.14;91.52;99268.59;5137669;27;20476;-54
2023/05/22 08:08:19;;;;;;;4.47;3.00;;;;;;;21.12;100.00;99257.06;5137746;28;20051;-61
2023/05/22 08:10:45;;;;;;;3.60;2.33;;;;;;;21.05;94.49;99268.38;5138567;27;20389;-55
2023/05/22 08:13:11;;;;;;;9.07;2.10;;;;;;;21.03;81.28;99295.16;5137781;28;20139;-53
2023/05/22 08:15:37;;;;;;;3.13;2.28;;;;;;;21.06;76.55;99294.25;5137873;28;20055;-58
2023/05/22 08:18:03;;;;;;;4.88;2.65;;;;;;;21.11;86.20;99279.81;5137400;27;20051;-54
2023/05/22 08:20:30;;;;;;;7.00;2.40;;;;;;;21.07;91.37;99265.19;5137654;28;20139;-55
2023/05/22 08:22:56;;;;;;;4.22;2.65;;;;;;;21.01;91.51;99276.06;5137552;28;20083;-57
2023/05/22 08:25:21;;;;;;;7.28;2.60;;;;;;;21.14;76.01;99295.69;5137637;28;20061;-53
2023/05/22 08:27:47;;;;;;;5.47;3.03;;;;;;;21.30;80.31;99290.13;5137379;28;20102;-51
2023/05/22 08:30:14;;;;;;;6.75;3.90;;;;;;;21.48;84.63;99284.13;5137563;28;20320;-54
2023/05/22 08:32:39;;;;;;;6.78;3.22;;;;;;;21.34;97.21;99254.59;5137252;28;20055;-61
2023/05/22 08:35:06;;;;;;;6.35;3.75;;;;;;;21.40;87.23;99268.81;5137142;27;20070;-60
2023/05/22 08:37:33;;;;;;;10.32;2.50;;;;;;;21.51;73.72;99296.44;5137475;28;20109;-59
2023/05/22 08:39:59;;;;;;;5.30;2.58;;;;;;;21.64;72.95;99302.09;5137288;28;20061;-62
2023/05/22 08:42:25;;;;;;;5.57;2.58;;;;;;;21.47;70.27;99304.09;5137545;27;20142;-60
2023/05/22 08:44:51;;;;;;;11.75;2.40;;;;;;;21.87;70.77;99301.91;5137215;28;20093;-55
2023/05/22 08:47:19;;;;;;;6.85;2.40;;;;;;;22.04;68.94;99303.44;5137471;28;20047;-52
2023/05/22 08:49:48;;;;;;;3.70;2.60;;;;;;;22.27;67.71;99308.03;5137332;28;20130;-51
2023/05/22 08:52:21;;;;;;;9.23;3.47;;;;;;;22.03;62.81;99303.88;5137332;28;20047;-56
2023/05/22 08:54:53;;;;;;;3.20;2.70;;;;;;;22.07;61.80;99310.94;5137246;28;20059;-52
2023/05/22 08:57:19;;;;;;;6.95;2.55;;;;;;;22.48;62.76;99305.84;5136995;27;20082;-60
2023/05/22 08:59:47;;;;;;;8.50;4.93;;;;;;;22.38;62.98;99310.53;5136892;28;20043;-54
2023/05/22 09:02:15;;;;;;;4.97;2.40;;;;;;;22.62;64.81;99304.66;5137020;27;20138;-59
2023/05/22 09:04:42;;;;;;;7.05;2.30;;;;;;;22.40;66.63;99299.69;5136820;28;20153;-57
2023/05/22 09:07:07;;;;;;;2.60;1.90;;;;;;;22.57;63.13;99303.22;5137041;27;20077;-54
2023/05/22 09:09:36;;;;;;;3.10;2.22;;;;;;;22.75;63.31;99306.25;5137127;27;20488;-54
2023/05/22 09:12:05;;;;;;;6.18;2.30;;;;;;;22.98;64.83;99299.59;5137041;28;20094;-55
2023/05/22 09:14:38;;;;;;;7.18;3.08;;;;;;;23.04;63.63;99297.06;5136873;28;20063;-60
2023/05/22 09:17:05;;;;;;;6.32;2.63;;;;;;;22.97;65.25;99300.84;5136850;28;20043;-56
2023/05/22 09:19:31;;;;;;;7.97;2.38;;;;;;;22.79;62.65;99300.56;5136812;28;20062;-54
2023/05/22 09:22:01;;;;;;;6.65;1.92;;;;;;;22.88;59.69;99303.47;5136784;28;20051;-59
2023/05/22 09:24:27;;;;;;;5.35;2.05;;;;;;;23.12;59.78;99290.00;5136731;28;20085;-56
2023/05/22 09:26:53;;;;;;;5.78;2.40;;;;;;;23.59;59.80;99299.69;5136672;28;20435;-57
2023/05/22 09:29:20;;;;;;;4.93;2.50;;;;;;;23.73;59.42;99295.69;5136532;27;20089;-55
2023/05/22 09:31:46;;;;;;;7.10;2.05;;;;;;;23.80;58.83;99290.63;5140642;28;20146;-57
2023/05/22 09:34:13;;;;;;;4.07;2.25;;;;;;;23.85;59.72;99287.22;5140659;28;20111;-52
2023/05/22 09:36:39;;;;;;;5.47;1.95;;;;;;;23.99;57.95;99293.56;5140124;27;20416;-54
2023/05/22 09:39:05;;;;;;;4.35;2.28;;;;;;;24.12;57.69;99291.50;5140134;28;20067;-60
2023/05/22 09:41:35;;;;;;;6.07;2.70;;;;;;;24.33;57.10;99287.97;5140104;27;20055;-56
2023/05/22 09:44:05;;;;;;;10.48;3.10;;;;;;;24.92;57.07;99287.41;5139765;28;20047;-51
2023/05/22 09:46:39;;;;;;;3.80;2.67;;;;;;;26.31;52.80;99283.69;5139940;28;20047;-60
2023/05/22 09:49:05;;;;;;;3.58;1.92;;;;;;;27.26;52.03;99277.72;5139934;28;20138;-61
2023/05/22 09:51:32;;;;;;;8.70;3.10;;;;;;;27.58;50.98;99278.91;5139882;27;20127;-60
2023/05/22 09:54:02;;;;;;;7.25;2.60;;;;;;;27.23;50.69;99278.66;5139845;28;20082;-54
2023/05/22 09:56:31;;;;;;;10.90;3.50;;;;;;;26.42;51.80;99269.94;5139675;28;20394;-56
2023/05/22 09:58:58;;;;;;;8.32;2.75;;;;;;;26.12;51.80;99275.25;5139917;28;20068;-53
2023/05/22 10:01:24;;;;;;;3.63;2.40;;;;;;;25.46;52.98;99270.03;5140112;28;20051;-53
2023/05/22 10:03:54;;;;;;;10.10;2.83;;;;;;;25.26;52.68;99276.06;5139823;27;20424;-55
2023/05/22 10:06:22;;;;;;;4.45;2.50;;;;;;;24.80;53.88;99267.41;5139882;27;20321;-56
2023/05/22 10:08:52;;;;;;;2.92;2.40;;;;;;;25.15;53.75;99261.66;5139954;27;20107;-56
2023/05/22 10:11:18;;;;;;;6.32;2.90;;;;;;;25.40;53.00;99269.06;5139809;28;20076;-58
2023/05/22 10:13:46;;;;;;;3.90;2.47;;;;;;;24.78;54.51;99261.47;5139876;27;20138;-62
2023/05/22 10:16:15;;;;;;;6.88;3.10;;;;;;;24.85;54.66;99260.41;5139818;28;20081;-54
2023/05/22 10:18:44;;;;;;;9.40;2.92;;;;;;;24.83;53.30;99263.69;5139376;27;20047;-59
2023/05/22 10:21:12;;;;;;;4.38;2.53;;;;;;;23.62;53.91;99262.41;5139385;28;20147;-54
2023/05/22 10:23:38;;;;;;;5.63;2.95;;;;;;;23.84;54.23;99262.50;5139236;28;20090;-55
2023/05/22 10:26:05;;;;;;;5.72;2.15;;;;;;;23.90;54.21;99258.69;5139637;27;20073;-53
2023/05/22 10:28:42;;;;;;;5.45;2.10;;;;;;;22.97;54.02;99258.91;5139422;28;20395;-56
2023/05/22 10:31:24;;;;;;;4.50;2.45;;;;;;;23.49;53.97;99260.44;5139177;28;20047;-59
2023/05/22 10:33:55;;;;;;;4.80;2.53;;;;;;;23.35;53.95;99249.72;5139424;28;20073;-61
2023/05/22 10:36:34;;;;;;;3.50;2.60;;;;;;;24.11;52.82;99248.72;5139285;27;20047;-54
2023/05/22 10:39:13;;;;;;;3.30;2.30;;;;;;;24.85;52.58;99252.00;5138970;28;20137;-61
2023/05/22 10:41:39;;;;;;;3.33;1.98;;;;;;;25.40;51.52;99255.03;5138957;27;20123;-55
2023/05/22 10:44:06;;;;;;;4.80;2.70;;;;;;;26.08;52.69;99246.53;5139021;27;20328;-59
2023/05/22 10:46:33;;;;;;;9.68;3.22;;;;;;;26.61;52.94;99245.41;5138856;28;20419;-59
2023/05/22 10:48:59;;;;;;;5.35;2.72;;;;;;;26.91;50.03;99244.34;5138740;28;20047;-55
2023/05/22 10:51:26;;;;;;;3.22;2.35;;;;;;;26.18;49.64;99241.69;5138957;28;20043;-59
2023/05/22 10:53:56;;;;;;;5.38;2.22;;;;;;;26.31;49.47;99241.53;5138587;28;20446;-59
2023/05/22 10:56:22;;;;;;;5.93;2.90;;;;;;;26.10;49.57;99238.44;5138698;28;20053;-58
2023/05/22 10:58:55;;;;;;;2.30;2.10;;;;;;;25.21;49.90;99250.63;5138825;28;20043;-60
2023/05/22 11:01:25;;;;;;;2.27;2.07;;;;;;;24.67;49.15;99235.09;5138902;28;20054;-57
2023/05/22 11:03:55;;;;;;;9.98;2.72;;;;;;;25.10;51.27;99243.38;5138680;28;20319;-54
2023/05/22 11:06:36;;;;;;;4.60;2.65;;;;;;;24.58;51.55;99233.03;5139010;27;20263;-54
2023/05/22 11:09:26;;;;;;;3.30;2.30;;;;;;;24.55;51.86;99228.34;5138534;28;20046;-55
2023/05/22 11:12:15;;;;;;;4.25;2.30;;;;;;;24.72;50.70;99229.66;5138486;27;20049;-53
2023/05/22 11:14:41;;;;;;;3.38;2.15;;;;;;;24.88;50.45;99231.47;5138577;28;20062;-52
2023/05/22 11:17:07;;;;;;;6.97;2.42;;;;;;;24.36;50.63;99233.81;5138360;28;20050;-52
2023/05/22 11:19:33;;;;;;;5.88;2.83;;;;;;;24.48;50.16;99220.22;5138296;27;20144;-56
2023/05/22 11:22:00;;;;;;;5.97;2.30;;;;;;;23.58;51.71;99219.78;5138415;28;20082;-54
2023/05/22 11:24:31;;;;;;;6.45;2.33;;;;;;;23.77;52.34;99218.75;5138354;27;20369;-57
2023/05/22 11:27:02;;;;;;;3.15;2.50;;;;;;;23.69;52.10;99232.22;5138351;28;20079;-59
2023/05/22 11:29:28;;;;;;;2.50;2.30;;;;;;;23.72;53.93;99219.31;5138219;27;20138;-58